Time;durP1;ratioP1;P1;durP2;ratioP2;P2;SDS_P1;SDS_P2;PMS_P1;PMS_P2;Temp;Humidity;BMP_temperature;BMP_pressure;BME280_temperature;BME280_humidity;BME280_pressure;Samples;Min_cycle;Max_cycle;Signal;HPM_P1;HPM_P2
2022/01/25 00:08:26;;;;;;;10.13;8.10;;;2.60;82.80;;;;;;5040822;28;20936;-51
2022/01/25 00:28:44;;;;;;;18.03;9.43;;;2.40;82.70;;;;;;5042400;28;20462;-51
2022/01/25 00:31:15;;;;;;;15.43;10.37;;;2.40;82.70;;;;;;5041469;28;20468;-51
2022/01/25 00:33:46;;;;;;;12.77;9.93;;;2.40;82.70;;;;;;5044134;28;21011;-51
2022/01/25 00:36:16;;;;;;;16.23;10.40;;;2.30;82.80;;;;;;5044675;28;20470;-51
2022/01/25 00:38:44;;;;;;;14.80;8.63;;;2.30;82.70;;;;;;5040045;28;20498;-51
2022/01/25 00:41:11;;;;;;;14.07;9.67;;;2.30;82.70;;;;;;5042754;28;20963;-51
2022/01/25 00:43:38;;;;;;;13.70;9.77;;;2.30;82.80;;;;;;5028367;28;21061;-51
2022/01/25 00:46:09;;;;;;;14.07;9.40;;;2.30;82.70;;;;;;5044736;28;20482;-51
2022/01/25 00:54:27;;;;;;;17.97;10.87;;;2.20;82.70;;;;;;5042160;28;20471;-51
2022/01/25 00:56:55;;;;;;;17.87;10.70;;;2.30;82.70;;;;;;5047650;28;20490;-51
2022/01/25 00:59:25;;;;;;;15.63;9.80;;;2.30;82.40;;;;;;5043337;28;20503;-51
2022/01/25 01:01:55;;;;;;;11.30;9.53;;;2.30;82.50;;;;;;5030187;28;20470;-51
2022/01/25 01:04:23;;;;;;;16.23;10.27;;;2.20;82.50;;;;;;5030069;28;20475;-51
2022/01/25 01:06:52;;;;;;;13.17;8.90;;;2.20;82.60;;;;;;5012062;28;20499;-51
2022/01/25 01:09:22;;;;;;;12.53;10.33;;;2.20;82.60;;;;;;5032323;28;20454;-51
2022/01/25 01:12:00;;;;;;;12.90;11.07;;;2.20;82.60;;;;;;5042160;28;20948;-51
2022/01/25 01:14:50;;;;;;;14.40;9.97;;;2.20;82.80;;;;;;5043818;28;20500;-51
2022/01/25 01:44:27;;;;;;;14.90;9.83;;;1.90;83.30;;;;;;5044131;28;20979;-51
2022/01/25 01:47:08;;;;;;;14.03;9.60;;;1.90;83.30;;;;;;5041365;28;20482;-51
2022/01/25 01:49:41;;;;;;;19.10;12.07;;;1.90;83.30;;;;;;5042950;28;20446;-51
2022/01/25 01:52:09;;;;;;;12.10;9.20;;;2.00;83.20;;;;;;5042535;28;20487;-51
2022/01/25 01:54:36;;;;;;;15.77;10.60;;;1.90;83.20;;;;;;5044505;28;20465;-50
2022/01/25 01:57:05;;;;;;;12.77;8.93;;;1.90;83.30;;;;;;5044939;28;20980;-49
2022/01/25 01:59:32;;;;;;;16.23;10.73;;;1.90;83.10;;;;;;5043033;28;20489;-50
2022/01/25 02:01:59;;;;;;;14.57;10.43;;;1.90;83.10;;;;;;5045126;28;20450;-50
2022/01/25 02:04:26;;;;;;;18.10;10.90;;;1.90;83.10;;;;;;5025625;28;20455;-50
2022/01/25 02:06:56;;;;;;;11.90;9.97;;;1.80;83.20;;;;;;5043414;28;20486;-50
2022/01/25 02:09:22;;;;;;;16.37;10.67;;;1.90;83.30;;;;;;5040851;28;20442;-50
2022/01/25 02:11:49;;;;;;;19.00;11.00;;;1.90;83.30;;;;;;5043605;28;20531;-50
2022/01/25 02:14:16;;;;;;;18.00;11.07;;;1.90;83.30;;;;;;5036500;28;20466;-50
2022/01/25 02:17:01;;;;;;;14.00;10.73;;;1.90;83.30;;;;;;5026438;28;20559;-50
2022/01/25 02:22:34;;;;;;;14.83;9.00;;;1.80;83.50;;;;;;5032093;28;20478;-50
2022/01/25 02:25:03;;;;;;;14.93;10.83;;;1.80;83.50;;;;;;5042069;28;20461;-49
2022/01/25 02:27:29;;;;;;;15.37;9.80;;;1.70;83.70;;;;;;5040942;28;20607;-50
2022/01/25 02:29:56;;;;;;;15.10;11.07;;;1.70;83.60;;;;;;5042002;28;20459;-50
2022/01/25 02:32:23;;;;;;;15.83;9.97;;;1.70;83.70;;;;;;5042463;28;20462;-50
2022/01/25 02:34:50;;;;;;;17.90;9.97;;;1.70;83.80;;;;;;5040340;28;20459;-50
2022/01/25 02:37:17;;;;;;;15.50;9.90;;;1.70;83.80;;;;;;5045020;28;20463;-50
2022/01/25 02:39:45;;;;;;;14.90;10.20;;;1.70;83.50;;;;;;5042890;28;20464;-50
2022/01/25 02:42:15;;;;;;;14.57;10.40;;;1.70;83.60;;;;;;5041483;28;20780;-50
2022/01/25 02:44:43;;;;;;;15.60;11.43;;;1.60;83.70;;;;;;5057377;28;20466;-50
2022/01/25 02:49:57;;;;;;;17.73;10.10;;;1.60;83.70;;;;;;5041234;28;20455;-49
2022/01/25 02:52:26;;;;;;;18.33;11.57;;;1.60;83.50;;;;;;5057290;28;20470;-50
2022/01/25 02:54:53;;;;;;;13.80;10.30;;;1.60;83.50;;;;;;5022625;28;20455;-50
2022/01/25 02:57:20;;;;;;;21.07;10.90;;;1.60;83.50;;;;;;5042158;28;20554;-50
2022/01/25 02:59:47;;;;;;;16.30;12.00;;;1.60;83.30;;;;;;5051070;28;20469;-50
2022/01/25 03:02:14;;;;;;;17.10;10.03;;;1.60;83.50;;;;;;5035643;28;20517;-50
2022/01/25 03:04:41;;;;;;;14.10;11.30;;;1.60;83.50;;;;;;5032191;28;20597;-46
2022/01/25 03:07:09;;;;;;;17.03;10.70;;;1.60;83.20;;;;;;5041937;28;20489;-46
2022/01/25 03:09:37;;;;;;;17.53;11.47;;;1.60;83.20;;;;;;5041504;28;20459;-46
2022/01/25 03:12:06;;;;;;;21.00;10.83;;;1.60;83.20;;;;;;5029911;28;20807;-46
2022/01/25 03:14:45;;;;;;;16.10;11.93;;;1.60;83.10;;;;;;5039124;28;20458;-46
2022/01/25 03:17:14;;;;;;;16.70;10.80;;;1.60;83.00;;;;;;5042968;28;20477;-46
2022/01/25 03:19:48;;;;;;;21.27;12.90;;;1.60;83.10;;;;;;5043324;28;20923;-46
2022/01/25 03:25:00;;;;;;;20.97;12.30;;;1.60;83.20;;;;;;5042507;28;20470;-46
2022/01/25 03:27:27;;;;;;;19.00;12.57;;;1.60;83.10;;;;;;5054103;28;20487;-46
2022/01/25 03:29:54;;;;;;;20.30;11.90;;;1.50;83.10;;;;;;5038638;28;20463;-46
2022/01/25 03:32:20;;;;;;;18.87;11.07;;;1.50;82.90;;;;;;5037421;28;20454;-46
2022/01/25 03:34:48;;;;;;;17.27;11.57;;;1.50;83.00;;;;;;5037961;28;20482;-46
2022/01/25 03:37:14;;;;;;;18.77;12.70;;;1.50;83.00;;;;;;5036702;28;20462;-46
2022/01/25 03:39:41;;;;;;;19.43;11.60;;;1.60;82.90;;;;;;5039689;28;20458;-46
2022/01/25 03:42:10;;;;;;;15.13;11.60;;;1.50;82.90;;;;;;5043069;28;20451;-46
2022/01/25 03:44:37;;;;;;;15.57;11.40;;;1.50;83.00;;;;;;5042251;28;20464;-46
2022/01/25 03:47:08;;;;;;;14.27;10.83;;;1.50;83.00;;;;;;5010906;28;20490;-49
2022/01/25 03:49:52;;;;;;;14.80;12.30;;;1.50;83.00;;;;;;5070719;28;20484;-49
2022/01/25 03:52:26;;;;;;;19.00;11.37;;;1.50;83.30;;;;;;5065244;28;20897;-49
2022/01/25 03:54:53;;;;;;;20.37;12.90;;;1.50;83.20;;;;;;5067856;28;20476;-49
2022/01/25 03:57:20;;;;;;;17.60;11.77;;;1.40;83.20;;;;;;5067680;28;20463;-49
2022/01/25 03:59:47;;;;;;;16.40;11.23;;;1.40;83.40;;;;;;5065692;28;20893;-48
2022/01/25 04:02:14;;;;;;;16.47;11.40;;;1.40;83.30;;;;;;5067612;28;20466;-48
2022/01/25 04:04:46;;;;;;;21.37;12.37;;;1.40;83.30;;;;;;5064904;28;20469;-49
2022/01/25 04:07:15;;;;;;;13.83;11.30;;;1.40;83.20;;;;;;5075031;28;20553;-48
2022/01/25 04:09:46;;;;;;;16.23;11.77;;;1.40;83.30;;;;;;5064213;28;20474;-48
2022/01/25 04:12:17;;;;;;;17.77;13.10;;;1.30;83.70;;;;;;5069253;28;21295;-49
2022/01/25 04:14:44;;;;;;;27.17;13.60;;;1.30;83.70;;;;;;5062749;28;20538;-49
2022/01/25 04:17:14;;;;;;;13.50;11.27;;;1.30;83.50;;;;;;5049600;28;20463;-49
2022/01/25 04:19:45;;;;;;;16.33;11.87;;;1.30;83.70;;;;;;5061618;28;20534;-49
2022/01/25 04:27:12;;;;;;;17.10;11.63;;;1.30;83.60;;;;;;5064772;28;20518;-49
2022/01/25 04:29:39;;;;;;;15.17;10.17;;;1.30;83.40;;;;;;5065770;28;20461;-49
2022/01/25 04:32:07;;;;;;;15.43;10.40;;;1.30;83.30;;;;;;5066518;28;20478;-49
2022/01/25 04:53:55;;;;;;;16.10;11.13;;;1.30;82.90;;;;;;5058778;28;20458;-49
2022/01/25 04:56:39;;;;;;;14.60;12.00;;;1.30;83.00;;;;;;5053998;28;21019;-49
2022/01/25 05:01:50;;;;;;;14.40;10.00;;;1.20;83.10;;;;;;5064686;28;20450;-49
2022/01/25 05:04:31;;;;;;;20.97;11.63;;;1.20;83.00;;;;;;5067195;28;20535;-49
2022/01/25 05:07:07;;;;;;;18.10;10.50;;;1.20;83.20;;;;;;5071780;28;21078;-49
2022/01/25 05:09:35;;;;;;;17.57;11.00;;;1.20;83.00;;;;;;5070046;28;20954;-49
2022/01/25 05:12:04;;;;;;;18.93;11.50;;;1.20;83.10;;;;;;5052988;28;20972;-49
2022/01/25 05:14:35;;;;;;;17.93;12.03;;;1.20;83.30;;;;;;5048643;28;20439;-49
2022/01/25 05:17:05;;;;;;;16.97;12.23;;;1.20;83.10;;;;;;5065112;28;20479;-48
2022/01/25 05:22:07;;;;;;;16.07;11.63;;;1.20;83.00;;;;;;5065039;28;20501;-49
2022/01/25 05:24:38;;;;;;;15.63;10.30;;;1.20;83.00;;;;;;5047606;28;20488;-49
2022/01/25 05:27:08;;;;;;;21.13;11.37;;;1.10;82.90;;;;;;5071350;28;20554;-48
2022/01/25 05:29:35;;;;;;;16.70;10.77;;;1.10;83.10;;;;;;5061603;28;20459;-48
2022/01/25 05:32:02;;;;;;;20.93;11.53;;;1.10;82.90;;;;;;5046421;28;20991;-48
2022/01/25 05:34:31;;;;;;;16.73;10.73;;;1.10;82.90;;;;;;5068885;28;20458;-48
2022/01/25 05:36:57;;;;;;;19.03;12.27;;;1.00;83.40;;;;;;5065540;28;20543;-48
2022/01/25 05:39:31;;;;;;;19.97;11.63;;;1.00;83.50;;;;;;5045260;28;20478;-50
2022/01/25 05:42:16;;;;;;;19.97;12.83;;;0.90;83.70;;;;;;5070221;28;20550;-50
2022/01/25 05:47:14;;;;;;;19.07;11.30;;;0.90;84.00;;;;;;5064793;28;20492;-50
2022/01/25 05:49:46;;;;;;;16.50;10.97;;;0.90;83.80;;;;;;5066700;28;20466;-50
2022/01/25 05:52:13;;;;;;;15.97;11.07;;;0.90;83.60;;;;;;5061881;28;20908;-49
2022/01/25 05:54:40;;;;;;;16.60;11.17;;;0.90;83.50;;;;;;5057052;28;20535;-50
2022/01/25 05:57:07;;;;;;;18.77;11.60;;;1.00;83.40;;;;;;5065097;28;20950;-49
2022/01/25 05:59:36;;;;;;;15.07;10.83;;;1.00;83.20;;;;;;5065616;28;20657;-50
2022/01/25 06:02:05;;;;;;;15.50;10.53;;;1.00;83.20;;;;;;5048313;28;20517;-50
2022/01/25 06:04:33;;;;;;;15.07;10.70;;;1.00;83.30;;;;;;5069692;28;20466;-49
2022/01/25 06:07:00;;;;;;;17.30;10.73;;;1.00;83.30;;;;;;5050973;28;20553;-49
2022/01/25 06:09:27;;;;;;;13.90;10.87;;;1.00;83.60;;;;;;5066371;28;20508;-49
2022/01/25 06:11:55;;;;;;;14.87;11.10;;;1.00;83.80;;;;;;5061901;28;20454;-49
2022/01/25 06:14:22;;;;;;;20.80;12.30;;;1.00;83.90;;;;;;5064709;28;20558;-49
2022/01/25 06:16:49;;;;;;;46.80;25.57;;;1.00;84.20;;;;;;5052195;28;20525;-49
2022/01/25 06:19:15;;;;;;;77.67;36.17;;;1.10;84.20;;;;;;5061783;28;20465;-49
2022/01/25 06:21:42;;;;;;;30.67;21.40;;;1.10;84.20;;;;;;5066600;28;20479;-49
2022/01/25 06:24:09;;;;;;;26.50;19.27;;;1.00;84.50;;;;;;5047583;28;20491;-49
2022/01/25 06:26:36;;;;;;;24.37;14.30;;;1.10;84.90;;;;;;5079139;28;20472;-49
2022/01/25 06:29:03;;;;;;;21.83;14.60;;;1.10;84.90;;;;;;5068704;28;20513;-50
2022/01/25 06:31:31;;;;;;;20.97;14.00;;;1.10;85.20;;;;;;5067655;28;20530;-49
2022/01/25 06:33:59;;;;;;;21.97;13.83;;;1.20;85.40;;;;;;5046753;28;21197;-49
2022/01/25 06:36:26;;;;;;;20.97;12.63;;;1.20;85.30;;;;;;5068459;28;20517;-49
2022/01/25 06:38:54;;;;;;;18.27;12.37;;;1.20;85.60;;;;;;5083928;28;20457;-49
2022/01/25 06:41:25;;;;;;;18.10;12.43;;;1.30;85.60;;;;;;5062358;28;20463;-49
2022/01/25 06:43:55;;;;;;;20.60;12.50;;;1.30;85.70;;;;;;5065963;28;20466;-49
2022/01/25 06:46:22;;;;;;;17.70;11.17;;;1.30;85.90;;;;;;5051042;28;20804;-49
2022/01/25 06:48:49;;;;;;;21.20;12.43;;;1.30;85.90;;;;;;5067344;28;20481;-50
2022/01/25 06:51:16;;;;;;;21.23;13.97;;;1.40;85.90;;;;;;5055959;28;20471;-49
2022/01/25 06:53:43;;;;;;;21.47;14.00;;;1.40;86.00;;;;;;5063484;28;20466;-49
2022/01/25 06:56:09;;;;;;;19.30;13.80;;;1.50;86.00;;;;;;5081654;28;20529;-49
2022/01/25 06:58:36;;;;;;;16.83;12.43;;;1.60;85.80;;;;;;5065522;28;20533;-49
2022/01/25 07:01:03;;;;;;;20.60;12.70;;;1.60;85.80;;;;;;5068288;28;20520;-49
2022/01/25 07:03:30;;;;;;;23.70;11.70;;;1.60;86.00;;;;;;5050151;28;20457;-50
2022/01/25 07:05:58;;;;;;;20.30;12.40;;;1.70;86.20;;;;;;5069839;28;20461;-49
2022/01/25 07:08:25;;;;;;;21.53;13.63;;;1.70;86.20;;;;;;5046807;28;20577;-49
2022/01/25 07:10:53;;;;;;;20.10;12.73;;;1.70;86.20;;;;;;5060059;28;21034;-49
2022/01/25 07:13:19;;;;;;;22.03;13.70;;;1.70;86.20;;;;;;5063839;28;20442;-49
2022/01/25 07:15:46;;;;;;;20.97;11.83;;;1.70;86.50;;;;;;5066117;28;20468;-49
2022/01/25 07:18:15;;;;;;;21.40;14.67;;;1.70;86.50;;;;;;5066144;28;20493;-49
2022/01/25 07:20:42;;;;;;;25.80;15.57;;;1.80;86.60;;;;;;5068278;28;20553;-49
2022/01/25 07:23:12;;;;;;;17.33;12.07;;;1.80;86.50;;;;;;5061557;28;20547;-48
2022/01/25 07:25:42;;;;;;;20.10;12.90;;;1.90;87.00;;;;;;5066837;28;20785;-50
2022/01/25 07:28:09;;;;;;;19.00;12.47;;;1.90;86.70;;;;;;5050214;28;21060;-49
2022/01/25 07:30:35;;;;;;;20.40;14.53;;;2.00;86.70;;;;;;5070984;28;21128;-49
2022/01/25 07:33:16;;;;;;;21.17;13.57;;;2.00;86.70;;;;;;5065231;28;20977;-49
2022/01/25 07:35:49;;;;;;;20.63;14.03;;;2.10;86.80;;;;;;5058215;28;20449;-49
2022/01/25 07:38:18;;;;;;;21.40;14.10;;;2.10;86.50;;;;;;5057076;28;20445;-49
2022/01/25 07:40:45;;;;;;;24.50;15.43;;;2.10;86.70;;;;;;5070771;28;20461;-49
2022/01/25 07:43:16;;;;;;;21.23;14.23;;;2.20;86.90;;;;;;5054196;28;20467;-49
2022/01/25 07:45:56;;;;;;;24.27;14.63;;;2.10;86.80;;;;;;5054435;28;20446;-49
2022/01/25 07:48:25;;;;;;;25.77;15.60;;;2.20;87.10;;;;;;5083283;28;20932;-49
2022/01/25 07:51:01;;;;;;;26.57;17.07;;;2.20;87.00;;;;;;5063326;28;20454;-49
2022/01/25 07:53:28;;;;;;;31.37;19.17;;;2.30;87.00;;;;;;5064377;28;20454;-46
2022/01/25 07:55:55;;;;;;;30.27;20.50;;;2.30;87.10;;;;;;5024653;28;20473;-46
2022/01/25 07:58:21;;;;;;;30.37;19.67;;;2.30;86.90;;;;;;5048574;28;20470;-49
2022/01/25 08:00:51;;;;;;;29.43;18.80;;;2.30;87.10;;;;;;5045610;28;20458;-48
2022/01/25 08:03:18;;;;;;;24.77;17.97;;;2.30;87.10;;;;;;5044619;28;20475;-48
2022/01/25 08:06:16;;;;;;;23.80;17.10;;;2.30;87.40;;;;;;5042072;28;20458;-48
2022/01/25 08:08:58;;;;;;;19.37;15.77;;;2.40;87.30;;;;;;5041401;28;20489;-48
2022/01/25 08:11:35;;;;;;;26.60;17.80;;;2.40;87.30;;;;;;5044912;28;20447;-46
2022/01/25 08:14:13;;;;;;;28.57;19.33;;;2.50;87.40;;;;;;5029170;28;20480;-50
2022/01/25 08:16:42;;;;;;;30.80;20.17;;;2.60;87.20;;;;;;5042179;28;20549;-50
2022/01/25 08:19:12;;;;;;;29.13;18.07;;;2.60;87.10;;;;;;5057329;28;20465;-50
2022/01/25 08:21:56;;;;;;;24.73;17.60;;;2.70;87.20;;;;;;5026537;28;20458;-50
2022/01/25 08:24:37;;;;;;;27.70;16.80;;;2.70;87.00;;;;;;4960464;28;20470;-51
2022/01/25 08:27:29;;;;;;;26.17;16.10;;;2.70;87.20;;;;;;4925160;29;20464;-50
2022/01/25 08:30:23;;;;;;;23.00;15.67;;;2.80;87.10;;;;;;4913585;29;20456;-47
2022/01/25 08:33:14;;;;;;;23.43;15.53;;;2.80;86.90;;;;;;4925995;29;20451;-47
2022/01/25 08:36:01;;;;;;;26.13;14.90;;;2.80;87.40;;;;;;4939305;28;20479;-47
2022/01/25 08:38:42;;;;;;;23.17;15.90;;;2.80;87.20;;;;;;4872574;29;20564;-47
2022/01/25 08:41:12;;;;;;;24.67;16.33;;;2.90;87.20;;;;;;4871734;29;20458;-47
2022/01/25 08:43:56;;;;;;;22.70;15.70;;;3.00;87.20;;;;;;4869515;29;20475;-47
2022/01/25 08:46:33;;;;;;;27.63;18.10;;;3.00;87.10;;;;;;4866139;29;20459;-47
2022/01/25 08:49:14;;;;;;;21.10;15.30;;;3.10;87.20;;;;;;4871474;29;20853;-47
2022/01/25 08:51:58;;;;;;;26.40;16.10;;;3.10;87.20;;;;;;4858073;29;20464;-47
2022/01/25 08:54:37;;;;;;;25.07;16.57;;;3.10;87.20;;;;;;4867909;29;20816;-47
2022/01/25 08:57:27;;;;;;;25.17;16.10;;;3.20;87.10;;;;;;4850316;29;20556;-47
2022/01/25 09:00:23;;;;;;;29.93;18.53;;;3.20;87.20;;;;;;4832685;29;20476;-47
2022/01/25 09:02:50;;;;;;;25.00;16.83;;;3.20;87.30;;;;;;4850821;29;20478;-47
2022/01/25 09:05:17;;;;;;;24.83;15.87;;;3.20;87.40;;;;;;4896455;29;21018;-47
2022/01/25 09:07:44;;;;;;;29.27;18.20;;;3.30;87.40;;;;;;4901692;29;20479;-47
2022/01/25 09:10:11;;;;;;;19.83;15.30;;;3.30;87.30;;;;;;4906742;29;21265;-47
2022/01/25 09:12:38;;;;;;;22.40;15.90;;;3.40;87.10;;;;;;4904995;29;21273;-47
2022/01/25 09:15:08;;;;;;;26.87;16.97;;;3.40;87.10;;;;;;4905777;29;20461;-47
2022/01/25 09:17:35;;;;;;;29.67;16.60;;;3.40;87.20;;;;;;4941851;28;20475;-47
2022/01/25 09:20:04;;;;;;;26.83;17.37;;;3.40;87.30;;;;;;4924837;28;20455;-47
2022/01/25 09:22:37;;;;;;;23.20;16.03;;;3.50;87.20;;;;;;4944359;28;20490;-48
2022/01/25 09:25:24;;;;;;;23.07;16.27;;;3.50;87.30;;;;;;4963259;28;20466;-47
2022/01/25 09:27:51;;;;;;;24.30;17.63;;;3.50;87.30;;;;;;4962977;28;20455;-46
2022/01/25 09:30:18;;;;;;;27.57;17.20;;;3.60;87.20;;;;;;4961978;28;21029;-47
2022/01/25 09:32:46;;;;;;;29.83;16.47;;;3.60;87.20;;;;;;4960263;28;20477;-48
2022/01/25 09:35:13;;;;;;;25.87;17.00;;;3.70;87.30;;;;;;5024591;28;20457;-47
2022/01/25 09:37:39;;;;;;;28.20;17.60;;;3.70;87.00;;;;;;5018706;28;20470;-47
2022/01/25 09:40:07;;;;;;;27.40;17.30;;;3.80;86.90;;;;;;5027109;28;20486;-48
2022/01/25 09:42:34;;;;;;;27.40;16.23;;;3.80;86.80;;;;;;5043920;28;20451;-47
2022/01/25 09:45:00;;;;;;;23.40;15.97;;;3.80;86.60;;;;;;5043111;28;20964;-46
2022/01/25 09:47:27;;;;;;;25.70;16.40;;;3.90;86.40;;;;;;5036669;28;20464;-46
2022/01/25 09:49:55;;;;;;;27.20;19.73;;;4.00;85.90;;;;;;5035587;28;20487;-46
2022/01/25 09:52:23;;;;;;;23.30;16.57;;;4.00;86.00;;;;;;5040504;28;21067;-46
2022/01/25 09:54:59;;;;;;;28.87;16.90;;;4.00;86.00;;;;;;5039076;28;20963;-46
2022/01/25 09:57:26;;;;;;;26.53;17.13;;;4.00;85.90;;;;;;5038557;28;20466;-46
2022/01/25 09:59:57;;;;;;;29.20;17.10;;;4.10;85.80;;;;;;5022863;28;20462;-46
2022/01/25 10:02:35;;;;;;;28.80;18.53;;;4.00;86.00;;;;;;5039400;28;20474;-46
2022/01/25 10:05:37;;;;;;;27.10;17.17;;;4.00;86.00;;;;;;5036066;28;20474;-47
2022/01/25 10:08:07;;;;;;;27.03;16.87;;;4.00;85.80;;;;;;4998873;28;20449;-47
2022/01/25 10:10:55;;;;;;;27.10;17.63;;;4.00;86.00;;;;;;5055315;28;20464;-47
2022/01/25 10:13:35;;;;;;;28.50;17.97;;;4.10;85.90;;;;;;5040351;28;20473;-48
2022/01/25 10:16:11;;;;;;;29.40;16.90;;;4.10;85.80;;;;;;5019300;28;20951;-47
2022/01/25 10:18:59;;;;;;;28.13;16.57;;;4.10;85.40;;;;;;5035377;28;20957;-47
2022/01/25 10:21:29;;;;;;;27.40;15.70;;;4.10;85.50;;;;;;5037318;28;20474;-47
2022/01/25 10:24:14;;;;;;;26.47;17.23;;;4.10;85.50;;;;;;5021201;28;20482;-48
2022/01/25 10:27:00;;;;;;;24.23;16.77;;;4.20;85.50;;;;;;5046234;28;20450;-47
2022/01/25 10:29:30;;;;;;;32.30;17.67;;;4.20;85.50;;;;;;5025745;28;20486;-48
2022/01/25 10:32:00;;;;;;;26.00;16.97;;;4.20;85.30;;;;;;5039052;28;20485;-47
2022/01/25 10:34:40;;;;;;;26.70;16.73;;;4.20;85.10;;;;;;5035882;28;20897;-48
2022/01/25 10:37:09;;;;;;;25.97;17.20;;;4.30;85.00;;;;;;5035194;28;20458;-47
2022/01/25 10:39:41;;;;;;;29.80;18.13;;;4.30;85.00;;;;;;5038450;28;20487;-48
2022/01/25 10:42:19;;;;;;;25.07;15.80;;;4.30;85.20;;;;;;5042345;28;20489;-47
2022/01/25 10:44:59;;;;;;;23.60;15.93;;;4.40;84.80;;;;;;5040288;28;20462;-48
2022/01/25 10:47:53;;;;;;;23.87;16.77;;;4.40;84.40;;;;;;5042881;28;20819;-47
2022/01/25 10:50:35;;;;;;;25.57;17.87;;;4.40;84.30;;;;;;5037341;28;20510;-46
2022/01/25 10:53:10;;;;;;;23.60;15.93;;;4.40;84.40;;;;;;5004889;28;20467;-46
2022/01/25 10:55:41;;;;;;;30.13;18.10;;;4.40;84.40;;;;;;5047819;28;20553;-49
2022/01/25 10:58:11;;;;;;;31.47;17.77;;;4.40;84.10;;;;;;5048193;28;20452;-50
2022/01/25 11:00:42;;;;;;;27.50;18.00;;;4.40;84.40;;;;;;5063266;28;20468;-50
2022/01/25 11:03:09;;;;;;;24.67;17.40;;;4.50;83.90;;;;;;5068681;28;20479;-49
2022/01/25 11:06:13;;;;;;;27.10;18.43;;;4.60;83.60;;;;;;5058081;28;20458;-50
2022/01/25 11:08:41;;;;;;;23.93;16.67;;;4.60;83.80;;;;;;5055908;28;20481;-49
2022/01/25 11:11:11;;;;;;;28.80;18.40;;;4.60;83.40;;;;;;5069485;28;20493;-49
2022/01/25 11:13:42;;;;;;;25.80;17.30;;;4.60;83.20;;;;;;5060035;28;20511;-49
2022/01/25 11:16:11;;;;;;;24.30;15.43;;;4.60;83.50;;;;;;5045541;28;20459;-50
2022/01/25 11:18:39;;;;;;;28.97;16.73;;;4.60;83.50;;;;;;5043090;28;20830;-49
2022/01/25 11:21:11;;;;;;;24.33;16.47;;;4.60;83.60;;;;;;5060163;28;20450;-49
2022/01/25 11:23:40;;;;;;;23.10;16.67;;;4.60;83.20;;;;;;5061012;28;20474;-50
2022/01/25 11:26:11;;;;;;;26.23;16.83;;;4.60;83.20;;;;;;5059203;28;20439;-49
2022/01/25 11:28:40;;;;;;;25.77;16.57;;;4.60;83.30;;;;;;5058016;28;20484;-49
2022/01/25 11:31:16;;;;;;;38.13;22.47;;;4.60;83.60;;;;;;5061291;28;20475;-49
2022/01/25 11:33:52;;;;;;;42.70;24.67;;;4.60;83.50;;;;;;5053213;28;20468;-49
2022/01/25 11:36:20;;;;;;;34.07;22.03;;;4.60;83.50;;;;;;5055739;28;21245;-49
2022/01/25 11:38:52;;;;;;;30.33;20.70;;;4.60;83.50;;;;;;5057376;28;20810;-49
2022/01/25 11:41:23;;;;;;;30.63;18.20;;;4.60;83.50;;;;;;5054778;28;20486;-49
2022/01/25 11:44:07;;;;;;;22.67;16.67;;;4.60;83.50;;;;;;5053662;28;20482;-49
2022/01/25 11:46:42;;;;;;;26.50;17.47;;;4.60;83.60;;;;;;5054451;28;20463;-49
2022/01/25 11:49:24;;;;;;;28.67;19.07;;;4.60;83.60;;;;;;5057262;28;20473;-49
2022/01/25 11:52:14;;;;;;;24.80;17.43;;;4.60;83.70;;;;;;5045621;28;20571;-50
2022/01/25 11:54:42;;;;;;;21.53;18.53;;;4.60;83.50;;;;;;5035571;28;20455;-50
2022/01/25 11:57:16;;;;;;;26.70;18.27;;;4.60;83.30;;;;;;5057096;28;20462;-50
2022/01/25 11:59:52;;;;;;;26.27;17.60;;;4.60;83.20;;;;;;5017857;28;20462;-51
2022/01/25 12:02:38;;;;;;;24.07;16.47;;;4.60;83.30;;;;;;5033518;28;20480;-50
2022/01/25 12:05:07;;;;;;;24.77;17.00;;;4.60;83.50;;;;;;5038415;28;20466;-51
2022/01/25 12:07:40;;;;;;;24.87;16.73;;;4.60;83.30;;;;;;5038327;28;20696;-50
2022/01/25 12:10:41;;;;;;;31.73;18.03;;;4.60;83.30;;;;;;5042754;28;20504;-50
2022/01/25 12:13:13;;;;;;;20.90;16.77;;;4.60;83.30;;;;;;5023542;28;20467;-47
2022/01/25 12:15:41;;;;;;;30.33;16.20;;;4.60;83.30;;;;;;5023081;28;20465;-47
2022/01/25 12:18:51;;;;;;;27.43;16.20;;;4.60;82.80;;;;;;5043213;28;21112;-47
2022/01/25 12:24:35;;;;;;;26.87;16.50;;;4.60;83.00;;;;;;5041165;28;20532;-46
2022/01/25 12:30:03;;;;;;;25.07;17.20;;;4.60;82.70;;;;;;5042076;28;20487;-46
2022/01/25 12:32:37;;;;;;;25.47;17.33;;;4.60;82.70;;;;;;5026615;28;20469;-47
2022/01/25 12:35:13;;;;;;;25.30;17.13;;;4.60;83.00;;;;;;5016178;28;20459;-47
2022/01/25 12:37:42;;;;;;;30.27;19.40;;;4.60;83.10;;;;;;5035657;28;20904;-47
2022/01/25 12:40:41;;;;;;;25.43;18.23;;;4.60;83.10;;;;;;5041617;28;20463;-47
2022/01/25 12:43:18;;;;;;;27.43;18.23;;;4.60;82.80;;;;;;4955202;28;21105;-47
2022/01/25 12:46:16;;;;;;;30.63;17.33;;;4.60;82.80;;;;;;5044287;28;20472;-47
2022/01/25 12:48:47;;;;;;;32.87;19.07;;;4.60;83.10;;;;;;5060049;28;20447;-48
2022/01/25 12:51:20;;;;;;;33.13;18.07;;;4.60;83.10;;;;;;5039154;28;20495;-47
2022/01/25 12:53:48;;;;;;;25.90;18.07;;;4.50;83.10;;;;;;5037458;28;20458;-47
2022/01/25 12:56:21;;;;;;;28.40;19.27;;;4.60;82.60;;;;;;5022888;28;20467;-46
2022/01/25 12:58:54;;;;;;;28.80;19.10;;;4.60;82.50;;;;;;5055712;28;20929;-47
2022/01/25 13:01:22;;;;;;;26.57;16.93;;;4.50;82.60;;;;;;5040022;28;20474;-46
2022/01/25 13:03:52;;;;;;;30.80;18.67;;;4.50;82.60;;;;;;5056679;28;20525;-47
2022/01/25 13:06:28;;;;;;;31.07;17.00;;;4.50;82.60;;;;;;5043694;28;20517;-46
2022/01/25 13:14:31;;;;;;;31.43;17.33;;;4.50;82.30;;;;;;5023272;28;20593;-47
2022/01/25 13:17:00;;;;;;;29.00;18.57;;;4.40;82.60;;;;;;5041721;28;20494;-48
2022/01/25 13:19:39;;;;;;;24.83;17.97;;;4.40;82.80;;;;;;5027752;28;20842;-47
2022/01/25 13:22:12;;;;;;;35.10;19.40;;;4.40;82.60;;;;;;5042373;28;20473;-48
2022/01/25 13:24:56;;;;;;;26.87;17.40;;;4.40;82.60;;;;;;5041865;28;21033;-47
2022/01/25 13:27:29;;;;;;;26.77;19.87;;;4.40;82.60;;;;;;5028049;28;20967;-48
2022/01/25 13:32:45;;;;;;;30.50;20.70;;;4.40;82.30;;;;;;5039063;28;20499;-47
2022/01/25 13:35:32;;;;;;;28.07;18.77;;;4.30;82.60;;;;;;5038957;28;20965;-47
2022/01/25 13:38:17;;;;;;;28.97;18.50;;;4.30;82.70;;;;;;5027998;28;20483;-47
2022/01/25 13:41:01;;;;;;;34.47;21.27;;;4.30;82.80;;;;;;5024058;28;20466;-50
2022/01/25 13:46:12;;;;;;;29.03;19.10;;;4.30;83.00;;;;;;5040334;28;20469;-51
2022/01/25 13:48:40;;;;;;;27.73;19.00;;;4.30;83.00;;;;;;5040569;28;20470;-51
2022/01/25 13:51:10;;;;;;;28.10;17.80;;;4.30;83.10;;;;;;5036352;28;20563;-50
2022/01/25 13:53:37;;;;;;;33.67;21.10;;;4.30;83.00;;;;;;5039892;28;20446;-51
2022/01/25 13:56:16;;;;;;;32.20;19.53;;;4.30;83.20;;;;;;5039048;28;20485;-51
2022/01/25 13:58:47;;;;;;;31.03;19.73;;;4.30;83.30;;;;;;5039365;28;20602;-51
2022/01/25 14:01:18;;;;;;;31.40;20.03;;;4.40;83.00;;;;;;5041678;28;20461;-51
2022/01/25 14:03:56;;;;;;;30.60;19.37;;;4.40;82.60;;;;;;5042207;28;20472;-51
2022/01/25 14:06:35;;;;;;;32.50;21.40;;;4.40;82.60;;;;;;5039329;28;20486;-50
2022/01/25 14:09:23;;;;;;;36.27;19.73;;;4.40;82.60;;;;;;5029767;28;20446;-51
2022/01/25 14:26:02;;;;;;;33.87;21.27;;;4.10;84.40;;;;;;5041169;28;20451;-51
2022/01/25 14:28:32;;;;;;;31.30;20.00;;;4.20;84.20;;;;;;5055565;28;20554;-51
2022/01/25 14:31:20;;;;;;;29.57;20.50;;;4.20;83.90;;;;;;5040963;28;21190;-51
2022/01/25 14:33:57;;;;;;;34.83;22.27;;;4.20;84.00;;;;;;5051080;28;20826;-50
2022/01/25 14:36:27;;;;;;;34.17;21.33;;;4.20;84.00;;;;;;5034181;28;20450;-51
2022/01/25 14:38:55;;;;;;;35.83;20.83;;;4.20;84.20;;;;;;5050382;28;20458;-51
2022/01/25 14:41:25;;;;;;;36.10;20.37;;;4.20;84.20;;;;;;5019551;28;20468;-51
2022/01/25 14:43:56;;;;;;;42.80;23.00;;;4.20;83.80;;;;;;5036791;28;20464;-51
2022/01/25 14:46:30;;;;;;;35.57;23.10;;;4.20;84.00;;;;;;5020803;28;20452;-51
2022/01/25 14:49:08;;;;;;;38.83;23.77;;;4.20;84.10;;;;;;5042800;28;20506;-51
2022/01/25 14:51:42;;;;;;;30.87;20.90;;;4.20;84.20;;;;;;5038265;28;20882;-50
2022/01/25 14:54:13;;;;;;;33.23;20.90;;;4.20;84.20;;;;;;5041401;28;20465;-50
2022/01/25 14:56:50;;;;;;;31.40;22.33;;;4.20;84.20;;;;;;5035586;28;20458;-50
2022/01/25 14:59:29;;;;;;;41.33;23.40;;;4.20;84.40;;;;;;5034245;28;20454;-50
2022/01/25 15:02:14;;;;;;;35.73;22.80;;;4.20;84.30;;;;;;5035323;28;20464;-50
2022/01/25 15:04:53;;;;;;;41.13;21.73;;;4.20;84.20;;;;;;5038346;28;20914;-50
2022/01/25 15:07:30;;;;;;;37.73;22.07;;;4.20;84.20;;;;;;5040628;28;20465;-51
2022/01/25 15:10:03;;;;;;;33.20;21.70;;;4.20;84.30;;;;;;5021463;28;21022;-50
2022/01/25 15:12:44;;;;;;;38.43;23.50;;;4.20;84.30;;;;;;5021861;28;20503;-51
2022/01/25 15:15:16;;;;;;;35.53;22.63;;;4.20;84.30;;;;;;5038387;28;20545;-50